This is the latest recevied weather packets stored in our database for station/object HP3ICC-22. If no packets are shown the sender has not sent any weather packets the latest 1 day(s).
| Time | Temp. | Humidity | Pressure | Rain* | Wind** | Luminosity | Snow |
|---|---|---|---|---|---|---|---|
| 1778016181 | 12.22° C | 80% | 1011 hPa | 0 mm | 0.89 m/s, 66° | - | - |
| 1778015041 | 12.22° C | 78% | 1011 hPa | 0 mm | 0.45 m/s, 66° | - | - |
| 1778014981 | 12.22° C | 78% | 1011 hPa | 0 mm | 0.45 m/s, 66° | - | - |
| 1778013841 | 13.33° C | 77% | 1012 hPa | 0 mm | 0.89 m/s, 66° | - | - |
| 1778013780 | 13.33° C | 77% | 1012 hPa | 0 mm | 0.89 m/s, 66° | - | - |
| 1778012640 | 12.22° C | 82% | 1011 hPa | 0 mm | 1.34 m/s, 58° | - | - |
| 1778012580 | 12.22° C | 82% | 1011 hPa | 0 mm | 1.34 m/s, 58° | - | - |
| 1778011440 | 12.78° C | 82% | 1011 hPa | 0 mm | 1.34 m/s, 58° | - | - |
| 1778011379 | 12.78° C | 82% | 1011 hPa | 0 mm | 1.34 m/s, 58° | - | - |
| 1778010239 | 13.33° C | 77% | 1012 hPa | 0 mm | 1.34 m/s, 58° | - | - |
| 1778010179 | 13.33° C | 77% | 1012 hPa | 0 mm | 1.34 m/s, 58° | - | - |
| 1778009039 | 13.33° C | 77% | 1011 hPa | 0 mm | 1.79 m/s, 61° | - | - |
| 1778008978 | 13.33° C | 77% | 1011 hPa | 0 mm | 1.79 m/s, 61° | - | - |
| 1778007838 | 13.33° C | 77% | 1011 hPa | 0 mm | 1.79 m/s, 61° | - | - |
| 1778007778 | 13.33° C | 77% | 1011 hPa | 0 mm | 1.79 m/s, 61° | - | - |
| 1778006637 | 13.33° C | 81% | 1012 hPa | 0 mm | 1.79 m/s, 61° | - | - |
| 1778006577 | 13.33° C | 81% | 1012 hPa | 0 mm | 1.79 m/s, 61° | - | - |
| 1778005437 | 13.89° C | 75% | 1012 hPa | 0 mm | 1.34 m/s, 69° | - | - |
| 1778005376 | 13.89° C | 75% | 1012 hPa | 0 mm | 1.34 m/s, 69° | - | - |
| 1778004236 | 13.89° C | 75% | 1012 hPa | 0 mm | 1.34 m/s, 69° | - | - |
| 1778004176 | 13.89° C | 75% | 1012 hPa | 0 mm | 1.34 m/s, 69° | - | - |
| 1778003036 | 13.33° C | 77% | 1013 hPa | 0 mm | 1.34 m/s, 69° | - | - |
| 1778002975 | 13.33° C | 77% | 1013 hPa | 0 mm | 1.34 m/s, 69° | - | - |
| 1778001835 | 13.89° C | 73% | 1013 hPa | 0.25 mm | 1.34 m/s, 70° | - | - |
| 1778001774 | 13.89° C | 73% | 1013 hPa | 0.25 mm | 1.34 m/s, 70° | - | - |
* Rain latest hour (hover to see other rain measurements)
** Current wind speed in m/s (hover to see current wind gust speed)